PADL/DLG METAR and TAF weather

Enter ICAO airport designator
Station Type Date Time Source
PADL METAR 2019/12/12 16:56 UTC NOAA

PADL 121656Z 36012KT 10SM BKN040 01/M01 A2914 RMK AO2 RAE03 SLP870 P0000 T00111006


Station Type Date Time Source
PADL Decoded METAR 2019/12/12 16:56 UTC NOAA

Dillingham, Dillingham Airport, AK, United States (PADL) 59-03N 158-31W 29M
Dec 12, 2019 - 11:56 AM EST / 2019.12.12 1656 UTC
Wind: from the N (360 degrees) at 14 MPH (12 KT):0
Visibility: 10 mile(s):0
Sky conditions: mostly cloudy
Precipitation last hour: A trace
Temperature: 34.0 F (1.1 C)
Windchill: 24 F (-4 C):1
Dew Point: 30.9 F (-0.6 C)
Relative Humidity: 88%
Pressure (altimeter): 29.14 in. Hg (986 hPa)
ob: PADL 121656Z 36012KT 10SM BKN040 01/M01 A2914 RMK AO2 RAE03 SLP870 P0000 T00111006
cycle: 17

Station Type Date Time Source
PADL TAF 2019/12/12 12:27 UTC NOAA

TAF PADL 121125Z 1212/1312 01012KT P6SM SCT030 OVC050
FM121600 35012KT 5SM -SHRASN BR SCT015 OVC025
FM122000 02010G18KT P6SM FEW020 OVC040

Example: see airport list